sensor_id;sensor_type;location;lat;lon;timestamp;P1;durP1;ratioP1;P2;durP2;ratioP2
15082;SDS011;7640;53.116;6.878;2024-01-15T00:00:01;9.17;;;2.93;;
15082;SDS011;7640;53.116;6.878;2024-01-15T00:02:31;15.33;;;2.47;;
15082;SDS011;7640;53.116;6.878;2024-01-15T00:05:00;14.23;;;2.00;;
15082;SDS011;7640;53.116;6.878;2024-01-15T00:07:28;9.07;;;2.23;;
15082;SDS011;7640;53.116;6.878;2024-01-15T00:09:57;13.03;;;2.73;;
15082;SDS011;7640;53.116;6.878;2024-01-15T00:12:25;15.57;;;2.90;;
15082;SDS011;7640;53.116;6.878;2024-01-15T00:14:56;13.07;;;1.90;;
15082;SDS011;7640;53.116;6.878;2024-01-15T00:17:24;13.77;;;2.10;;
15082;SDS011;7640;53.116;6.878;2024-01-15T00:19:53;12.57;;;2.70;;
15082;SDS011;7640;53.116;6.878;2024-01-15T00:22:21;9.63;;;2.00;;
15082;SDS011;7640;53.116;6.878;2024-01-15T00:24:52;10.87;;;1.70;;
15082;SDS011;7640;53.116;6.878;2024-01-15T00:27:21;15.70;;;2.20;;
15082;SDS011;7640;53.116;6.878;2024-01-15T00:29:50;12.70;;;2.10;;
15082;SDS011;7640;53.116;6.878;2024-01-15T00:32:20;11.47;;;1.90;;
15082;SDS011;7640;53.116;6.878;2024-01-15T00:34:49;5.83;;;1.50;;
15082;SDS011;7640;53.116;6.878;2024-01-15T00:37:18;9.23;;;1.57;;
15082;SDS011;7640;53.116;6.878;2024-01-15T00:39:47;8.63;;;1.93;;
15082;SDS011;7640;53.116;6.878;2024-01-15T00:42:15;9.90;;;1.90;;
15082;SDS011;7640;53.116;6.878;2024-01-15T00:44:44;9.20;;;1.60;;
15082;SDS011;7640;53.116;6.878;2024-01-15T00:47:13;9.50;;;2.10;;
15082;SDS011;7640;53.116;6.878;2024-01-15T00:49:43;10.83;;;1.70;;
15082;SDS011;7640;53.116;6.878;2024-01-15T00:52:12;9.80;;;1.93;;
15082;SDS011;7640;53.116;6.878;2024-01-15T00:54:40;7.00;;;1.77;;
15082;SDS011;7640;53.116;6.878;2024-01-15T00:57:09;8.93;;;1.80;;
15082;SDS011;7640;53.116;6.878;2024-01-15T00:59:37;8.80;;;1.60;;
15082;SDS011;7640;53.116;6.878;2024-01-15T01:02:06;4.90;;;1.20;;
15082;SDS011;7640;53.116;6.878;2024-01-15T01:04:35;6.90;;;1.80;;
15082;SDS011;7640;53.116;6.878;2024-01-15T01:07:05;4.73;;;1.57;;
15082;SDS011;7640;53.116;6.878;2024-01-15T01:09:34;6.80;;;1.70;;
15082;SDS011;7640;53.116;6.878;2024-01-15T01:12:03;4.37;;;1.40;;
15082;SDS011;7640;53.116;6.878;2024-01-15T01:14:32;4.30;;;1.20;;
15082;SDS011;7640;53.116;6.878;2024-01-15T01:17:00;2.70;;;0.87;;
15082;SDS011;7640;53.116;6.878;2024-01-15T01:19:29;3.60;;;0.90;;
15082;SDS011;7640;53.116;6.878;2024-01-15T01:21:58;5.23;;;1.23;;
15082;SDS011;7640;53.116;6.878;2024-01-15T01:24:28;4.33;;;0.90;;
15082;SDS011;7640;53.116;6.878;2024-01-15T01:26:56;6.20;;;1.47;;
15082;SDS011;7640;53.116;6.878;2024-01-15T01:29:25;6.93;;;1.30;;
15082;SDS011;7640;53.116;6.878;2024-01-15T01:31:54;9.00;;;1.50;;
15082;SDS011;7640;53.116;6.878;2024-01-15T01:34:23;4.50;;;1.50;;
15082;SDS011;7640;53.116;6.878;2024-01-15T01:36:51;5.83;;;1.40;;
15082;SDS011;7640;53.116;6.878;2024-01-15T01:39:20;9.27;;;1.60;;
15082;SDS011;7640;53.116;6.878;2024-01-15T01:41:50;4.73;;;1.37;;
15082;SDS011;7640;53.116;6.878;2024-01-15T01:44:18;5.97;;;1.50;;
15082;SDS011;7640;53.116;6.878;2024-01-15T01:46:47;6.53;;;1.50;;
15082;SDS011;7640;53.116;6.878;2024-01-15T01:49:16;10.40;;;1.50;;
15082;SDS011;7640;53.116;6.878;2024-01-15T01:51:46;4.13;;;1.13;;
15082;SDS011;7640;53.116;6.878;2024-01-15T01:54:15;4.40;;;1.27;;
15082;SDS011;7640;53.116;6.878;2024-01-15T01:56:46;8.10;;;1.60;;
15082;SDS011;7640;53.116;6.878;2024-01-15T01:59:17;7.00;;;1.63;;
15082;SDS011;7640;53.116;6.878;2024-01-15T02:01:46;10.70;;;1.83;;
15082;SDS011;7640;53.116;6.878;2024-01-15T02:04:17;11.47;;;1.70;;
15082;SDS011;7640;53.116;6.878;2024-01-15T02:06:47;7.23;;;1.83;;
15082;SDS011;7640;53.116;6.878;2024-01-15T02:09:16;10.43;;;2.60;;
15082;SDS011;7640;53.116;6.878;2024-01-15T02:11:46;7.80;;;1.73;;
15082;SDS011;7640;53.116;6.878;2024-01-15T02:14:16;13.33;;;1.70;;
15082;SDS011;7640;53.116;6.878;2024-01-15T02:16:45;4.30;;;1.80;;
15082;SDS011;7640;53.116;6.878;2024-01-15T02:19:14;8.50;;;1.30;;
15082;SDS011;7640;53.116;6.878;2024-01-15T02:21:45;10.57;;;2.20;;
15082;SDS011;7640;53.116;6.878;2024-01-15T02:24:15;10.07;;;2.00;;
15082;SDS011;7640;53.116;6.878;2024-01-15T02:26:43;7.37;;;1.30;;
15082;SDS011;7640;53.116;6.878;2024-01-15T02:29:12;8.90;;;1.63;;
15082;SDS011;7640;53.116;6.878;2024-01-15T02:31:41;6.53;;;1.30;;
15082;SDS011;7640;53.116;6.878;2024-01-15T02:34:10;10.33;;;1.83;;
15082;SDS011;7640;53.116;6.878;2024-01-15T02:36:39;7.87;;;2.00;;
15082;SDS011;7640;53.116;6.878;2024-01-15T02:39:07;15.00;;;2.37;;
15082;SDS011;7640;53.116;6.878;2024-01-15T02:41:41;19.40;;;4.43;;
15082;SDS011;7640;53.116;6.878;2024-01-15T02:44:10;6.37;;;1.50;;
15082;SDS011;7640;53.116;6.878;2024-01-15T02:46:38;7.50;;;2.00;;
15082;SDS011;7640;53.116;6.878;2024-01-15T02:49:07;5.23;;;1.40;;
15082;SDS011;7640;53.116;6.878;2024-01-15T02:51:36;8.27;;;1.67;;
15082;SDS011;7640;53.116;6.878;2024-01-15T02:54:04;9.87;;;2.03;;
15082;SDS011;7640;53.116;6.878;2024-01-15T02:56:33;8.13;;;1.90;;
15082;SDS011;7640;53.116;6.878;2024-01-15T02:59:03;7.37;;;2.00;;
15082;SDS011;7640;53.116;6.878;2024-01-15T03:01:32;11.17;;;1.93;;
15082;SDS011;7640;53.116;6.878;2024-01-15T03:04:01;11.37;;;2.27;;
15082;SDS011;7640;53.116;6.878;2024-01-15T03:06:29;15.77;;;2.07;;
15082;SDS011;7640;53.116;6.878;2024-01-15T03:08:58;12.90;;;3.10;;
15082;SDS011;7640;53.116;6.878;2024-01-15T03:11:27;12.20;;;2.10;;
15082;SDS011;7640;53.116;6.878;2024-01-15T03:13:56;9.73;;;1.90;;
15082;SDS011;7640;53.116;6.878;2024-01-15T03:16:25;9.87;;;1.87;;
15082;SDS011;7640;53.116;6.878;2024-01-15T03:18:54;11.93;;;2.40;;
15082;SDS011;7640;53.116;6.878;2024-01-15T03:21:23;8.40;;;1.73;;
15082;SDS011;7640;53.116;6.878;2024-01-15T03:23:51;11.27;;;1.77;;
15082;SDS011;7640;53.116;6.878;2024-01-15T03:26:20;12.43;;;2.20;;
15082;SDS011;7640;53.116;6.878;2024-01-15T03:28:48;9.80;;;1.70;;
15082;SDS011;7640;53.116;6.878;2024-01-15T03:31:18;8.80;;;1.97;;
15082;SDS011;7640;53.116;6.878;2024-01-15T03:33:48;9.10;;;2.10;;
15082;SDS011;7640;53.116;6.878;2024-01-15T03:36:17;9.80;;;2.23;;
15082;SDS011;7640;53.116;6.878;2024-01-15T03:38:46;12.53;;;2.10;;
15082;SDS011;7640;53.116;6.878;2024-01-15T03:41:14;8.90;;;1.87;;
15082;SDS011;7640;53.116;6.878;2024-01-15T03:43:45;8.43;;;2.20;;
15082;SDS011;7640;53.116;6.878;2024-01-15T03:46:13;7.40;;;2.37;;
15082;SDS011;7640;53.116;6.878;2024-01-15T03:48:42;12.43;;;2.30;;
15082;SDS011;7640;53.116;6.878;2024-01-15T03:51:12;20.00;;;3.80;;
15082;SDS011;7640;53.116;6.878;2024-01-15T03:53:45;14.73;;;2.33;;
15082;SDS011;7640;53.116;6.878;2024-01-15T03:56:14;10.67;;;2.40;;
15082;SDS011;7640;53.116;6.878;2024-01-15T03:58:42;11.73;;;2.50;;
15082;SDS011;7640;53.116;6.878;2024-01-15T04:01:11;14.23;;;2.40;;
15082;SDS011;7640;53.116;6.878;2024-01-15T04:03:40;12.43;;;2.97;;
15082;SDS011;7640;53.116;6.878;2024-01-15T04:06:08;14.20;;;2.47;;
15082;SDS011;7640;53.116;6.878;2024-01-15T04:08:38;10.63;;;2.57;;
15082;SDS011;7640;53.116;6.878;2024-01-15T04:11:10;10.83;;;2.07;;
15082;SDS011;7640;53.116;6.878;2024-01-15T04:13:38;13.13;;;2.67;;
15082;SDS011;7640;53.116;6.878;2024-01-15T04:16:08;17.33;;;2.50;;
15082;SDS011;7640;53.116;6.878;2024-01-15T04:18:36;9.03;;;2.43;;
15082;SDS011;7640;53.116;6.878;2024-01-15T04:21:05;8.50;;;1.80;;
15082;SDS011;7640;53.116;6.878;2024-01-15T04:23:34;10.63;;;2.50;;
15082;SDS011;7640;53.116;6.878;2024-01-15T04:26:04;15.73;;;2.83;;
15082;SDS011;7640;53.116;6.878;2024-01-15T04:28:33;7.47;;;1.70;;
15082;SDS011;7640;53.116;6.878;2024-01-15T04:31:01;13.27;;;2.37;;
15082;SDS011;7640;53.116;6.878;2024-01-15T04:33:30;10.83;;;2.50;;
15082;SDS011;7640;53.116;6.878;2024-01-15T04:36:01;17.13;;;2.90;;
15082;SDS011;7640;53.116;6.878;2024-01-15T04:38:30;9.33;;;2.20;;
15082;SDS011;7640;53.116;6.878;2024-01-15T04:40:59;8.50;;;2.20;;
15082;SDS011;7640;53.116;6.878;2024-01-15T04:43:29;11.13;;;1.90;;
15082;SDS011;7640;53.116;6.878;2024-01-15T04:45:58;8.00;;;2.00;;
15082;SDS011;7640;53.116;6.878;2024-01-15T04:48:27;8.93;;;2.33;;
15082;SDS011;7640;53.116;6.878;2024-01-15T04:50:56;11.53;;;2.27;;
15082;SDS011;7640;53.116;6.878;2024-01-15T04:53:25;12.20;;;1.93;;
15082;SDS011;7640;53.116;6.878;2024-01-15T04:55:54;8.40;;;1.43;;
15082;SDS011;7640;53.116;6.878;2024-01-15T04:58:22;7.10;;;1.57;;
15082;SDS011;7640;53.116;6.878;2024-01-15T05:00:55;9.53;;;2.17;;
15082;SDS011;7640;53.116;6.878;2024-01-15T05:03:24;3.90;;;1.23;;
15082;SDS011;7640;53.116;6.878;2024-01-15T05:05:52;6.10;;;1.60;;
15082;SDS011;7640;53.116;6.878;2024-01-15T05:08:21;6.00;;;1.50;;
15082;SDS011;7640;53.116;6.878;2024-01-15T05:10:50;6.00;;;1.50;;
15082;SDS011;7640;53.116;6.878;2024-01-15T05:13:18;8.87;;;1.30;;
15082;SDS011;7640;53.116;6.878;2024-01-15T05:15:47;4.73;;;1.20;;
15082;SDS011;7640;53.116;6.878;2024-01-15T05:18:17;3.87;;;1.40;;
15082;SDS011;7640;53.116;6.878;2024-01-15T05:20:46;9.33;;;1.77;;
15082;SDS011;7640;53.116;6.878;2024-01-15T05:23:15;10.13;;;1.40;;
15082;SDS011;7640;53.116;6.878;2024-01-15T05:25:44;11.67;;;2.20;;
15082;SDS011;7640;53.116;6.878;2024-01-15T05:28:13;2.83;;;1.10;;
15082;SDS011;7640;53.116;6.878;2024-01-15T05:30:42;5.43;;;1.50;;
15082;SDS011;7640;53.116;6.878;2024-01-15T05:33:11;5.97;;;1.30;;
15082;SDS011;7640;53.116;6.878;2024-01-15T05:35:41;8.20;;;1.50;;
15082;SDS011;7640;53.116;6.878;2024-01-15T05:38:10;6.27;;;1.43;;
15082;SDS011;7640;53.116;6.878;2024-01-15T05:40:39;8.27;;;1.13;;
15082;SDS011;7640;53.116;6.878;2024-01-15T05:43:08;4.00;;;1.13;;
15082;SDS011;7640;53.116;6.878;2024-01-15T05:45:37;6.50;;;1.20;;
15082;SDS011;7640;53.116;6.878;2024-01-15T05:48:07;11.47;;;1.40;;
15082;SDS011;7640;53.116;6.878;2024-01-15T05:50:35;5.17;;;1.60;;
15082;SDS011;7640;53.116;6.878;2024-01-15T05:53:06;8.60;;;1.63;;
15082;SDS011;7640;53.116;6.878;2024-01-15T05:55:35;9.63;;;1.70;;
15082;SDS011;7640;53.116;6.878;2024-01-15T05:58:04;8.17;;;1.70;;
15082;SDS011;7640;53.116;6.878;2024-01-15T06:00:34;6.17;;;1.80;;
15082;SDS011;7640;53.116;6.878;2024-01-15T06:03:04;6.23;;;1.50;;
15082;SDS011;7640;53.116;6.878;2024-01-15T06:05:33;6.47;;;1.20;;
15082;SDS011;7640;53.116;6.878;2024-01-15T06:08:02;8.93;;;1.20;;
15082;SDS011;7640;53.116;6.878;2024-01-15T06:10:32;5.87;;;1.60;;
15082;SDS011;7640;53.116;6.878;2024-01-15T06:13:01;8.03;;;1.63;;
15082;SDS011;7640;53.116;6.878;2024-01-15T06:15:30;8.47;;;1.77;;
15082;SDS011;7640;53.116;6.878;2024-01-15T06:17:58;12.83;;;2.53;;
15082;SDS011;7640;53.116;6.878;2024-01-15T06:20:27;6.27;;;2.40;;
15082;SDS011;7640;53.116;6.878;2024-01-15T06:22:56;6.27;;;1.73;;
15082;SDS011;7640;53.116;6.878;2024-01-15T06:25:25;4.43;;;1.30;;
15082;SDS011;7640;53.116;6.878;2024-01-15T06:27:55;10.17;;;1.77;;
15082;SDS011;7640;53.116;6.878;2024-01-15T06:30:23;7.33;;;2.13;;
15082;SDS011;7640;53.116;6.878;2024-01-15T06:32:52;10.03;;;1.73;;
15082;SDS011;7640;53.116;6.878;2024-01-15T06:35:20;9.93;;;2.00;;
15082;SDS011;7640;53.116;6.878;2024-01-15T06:37:49;10.27;;;2.17;;
15082;SDS011;7640;53.116;6.878;2024-01-15T06:40:18;9.47;;;2.17;;
15082;SDS011;7640;53.116;6.878;2024-01-15T06:42:47;9.97;;;1.90;;
15082;SDS011;7640;53.116;6.878;2024-01-15T06:45:17;8.97;;;2.10;;
15082;SDS011;7640;53.116;6.878;2024-01-15T06:47:45;14.30;;;2.17;;
15082;SDS011;7640;53.116;6.878;2024-01-15T06:50:14;7.50;;;2.30;;
15082;SDS011;7640;53.116;6.878;2024-01-15T06:52:43;11.50;;;1.63;;
15082;SDS011;7640;53.116;6.878;2024-01-15T06:55:11;12.03;;;2.20;;
15082;SDS011;7640;53.116;6.878;2024-01-15T06:57:40;7.20;;;1.43;;
15082;SDS011;7640;53.116;6.878;2024-01-15T07:00:10;14.30;;;1.93;;
15082;SDS011;7640;53.116;6.878;2024-01-15T07:02:42;9.60;;;2.00;;
15082;SDS011;7640;53.116;6.878;2024-01-15T07:05:11;8.37;;;1.93;;
15082;SDS011;7640;53.116;6.878;2024-01-15T07:07:40;10.63;;;2.00;;
15082;SDS011;7640;53.116;6.878;2024-01-15T07:10:08;9.57;;;1.67;;
15082;SDS011;7640;53.116;6.878;2024-01-15T07:12:37;10.97;;;2.47;;
15082;SDS011;7640;53.116;6.878;2024-01-15T07:15:07;11.97;;;2.50;;
15082;SDS011;7640;53.116;6.878;2024-01-15T07:17:37;11.23;;;2.10;;
15082;SDS011;7640;53.116;6.878;2024-01-15T07:20:08;14.83;;;2.53;;
15082;SDS011;7640;53.116;6.878;2024-01-15T07:22:38;12.93;;;2.33;;
15082;SDS011;7640;53.116;6.878;2024-01-15T07:25:07;11.83;;;2.20;;
15082;SDS011;7640;53.116;6.878;2024-01-15T07:27:35;13.47;;;2.33;;
15082;SDS011;7640;53.116;6.878;2024-01-15T07:30:04;9.50;;;1.90;;
15082;SDS011;7640;53.116;6.878;2024-01-15T07:32:35;9.90;;;2.40;;
15082;SDS011;7640;53.116;6.878;2024-01-15T07:35:04;9.80;;;1.90;;
15082;SDS011;7640;53.116;6.878;2024-01-15T07:37:35;8.50;;;1.77;;
15082;SDS011;7640;53.116;6.878;2024-01-15T07:40:04;4.73;;;1.60;;
15082;SDS011;7640;53.116;6.878;2024-01-15T07:42:35;15.23;;;2.13;;
15082;SDS011;7640;53.116;6.878;2024-01-15T07:45:05;14.10;;;2.40;;
15082;SDS011;7640;53.116;6.878;2024-01-15T07:47:34;16.77;;;2.50;;
15082;SDS011;7640;53.116;6.878;2024-01-15T07:50:02;15.33;;;2.53;;
15082;SDS011;7640;53.116;6.878;2024-01-15T07:52:32;8.37;;;2.40;;
15082;SDS011;7640;53.116;6.878;2024-01-15T07:55:02;12.27;;;2.60;;
15082;SDS011;7640;53.116;6.878;2024-01-15T07:57:32;13.00;;;3.07;;
15082;SDS011;7640;53.116;6.878;2024-01-15T08:00:02;15.57;;;3.97;;
15082;SDS011;7640;53.116;6.878;2024-01-15T08:02:32;7.63;;;3.10;;
15082;SDS011;7640;53.116;6.878;2024-01-15T08:05:03;14.87;;;2.63;;
15082;SDS011;7640;53.116;6.878;2024-01-15T08:07:32;12.33;;;2.20;;
15082;SDS011;7640;53.116;6.878;2024-01-15T08:10:02;12.57;;;2.37;;
15082;SDS011;7640;53.116;6.878;2024-01-15T08:12:31;7.63;;;1.93;;
15082;SDS011;7640;53.116;6.878;2024-01-15T08:15:00;10.20;;;2.03;;
15082;SDS011;7640;53.116;6.878;2024-01-15T08:17:28;17.50;;;3.07;;
15082;SDS011;7640;53.116;6.878;2024-01-15T08:19:58;7.73;;;2.30;;
15082;SDS011;7640;53.116;6.878;2024-01-15T08:22:28;9.83;;;2.17;;
15082;SDS011;7640;53.116;6.878;2024-01-15T08:24:59;13.70;;;2.37;;
15082;SDS011;7640;53.116;6.878;2024-01-15T08:27:27;11.50;;;1.70;;
15082;SDS011;7640;53.116;6.878;2024-01-15T08:29:57;6.10;;;1.60;;
15082;SDS011;7640;53.116;6.878;2024-01-15T08:32:26;11.73;;;1.90;;
15082;SDS011;7640;53.116;6.878;2024-01-15T08:34:54;8.37;;;1.60;;
15082;SDS011;7640;53.116;6.878;2024-01-15T08:37:23;12.27;;;2.30;;
15082;SDS011;7640;53.116;6.878;2024-01-15T08:39:52;7.13;;;1.30;;
15082;SDS011;7640;53.116;6.878;2024-01-15T08:42:22;7.73;;;1.93;;
15082;SDS011;7640;53.116;6.878;2024-01-15T08:44:52;12.93;;;1.97;;
15082;SDS011;7640;53.116;6.878;2024-01-15T08:47:21;11.30;;;1.90;;
15082;SDS011;7640;53.116;6.878;2024-01-15T08:49:50;8.97;;;1.63;;
15082;SDS011;7640;53.116;6.878;2024-01-15T08:52:19;8.17;;;1.70;;
15082;SDS011;7640;53.116;6.878;2024-01-15T08:54:47;5.30;;;1.50;;
15082;SDS011;7640;53.116;6.878;2024-01-15T08:57:16;9.73;;;1.73;;
15082;SDS011;7640;53.116;6.878;2024-01-15T08:59:46;10.33;;;2.03;;
15082;SDS011;7640;53.116;6.878;2024-01-15T09:02:15;8.33;;;1.90;;
15082;SDS011;7640;53.116;6.878;2024-01-15T09:04:44;8.10;;;1.60;;
15082;SDS011;7640;53.116;6.878;2024-01-15T09:07:13;8.57;;;2.17;;
15082;SDS011;7640;53.116;6.878;2024-01-15T09:09:41;6.20;;;1.50;;
15082;SDS011;7640;53.116;6.878;2024-01-15T09:12:10;11.30;;;1.50;;
15082;SDS011;7640;53.116;6.878;2024-01-15T09:14:42;5.63;;;1.40;;
15082;SDS011;7640;53.116;6.878;2024-01-15T09:17:11;9.80;;;1.70;;
15082;SDS011;7640;53.116;6.878;2024-01-15T09:19:40;3.90;;;1.40;;
15082;SDS011;7640;53.116;6.878;2024-01-15T09:22:09;8.50;;;1.90;;
15082;SDS011;7640;53.116;6.878;2024-01-15T09:24:39;7.73;;;1.57;;
15082;SDS011;7640;53.116;6.878;2024-01-15T09:27:08;6.67;;;1.13;;
15082;SDS011;7640;53.116;6.878;2024-01-15T09:29:37;6.53;;;1.30;;
15082;SDS011;7640;53.116;6.878;2024-01-15T09:32:08;4.07;;;0.97;;
15082;SDS011;7640;53.116;6.878;2024-01-15T09:34:38;6.70;;;1.60;;
15082;SDS011;7640;53.116;6.878;2024-01-15T09:37:08;4.57;;;1.40;;
15082;SDS011;7640;53.116;6.878;2024-01-15T09:39:45;5.00;;;1.27;;
15082;SDS011;7640;53.116;6.878;2024-01-15T09:42:15;5.70;;;1.70;;
15082;SDS011;7640;53.116;6.878;2024-01-15T09:44:47;8.23;;;1.43;;
15082;SDS011;7640;53.116;6.878;2024-01-15T09:47:17;6.50;;;1.87;;
15082;SDS011;7640;53.116;6.878;2024-01-15T09:49:49;3.50;;;1.30;;
15082;SDS011;7640;53.116;6.878;2024-01-15T09:52:18;6.23;;;1.50;;
15082;SDS011;7640;53.116;6.878;2024-01-15T09:54:48;6.07;;;1.67;;
15082;SDS011;7640;53.116;6.878;2024-01-15T09:57:17;9.47;;;1.73;;
15082;SDS011;7640;53.116;6.878;2024-01-15T09:59:46;2.47;;;1.00;;
15082;SDS011;7640;53.116;6.878;2024-01-15T10:02:16;7.13;;;1.70;;
15082;SDS011;7640;53.116;6.878;2024-01-15T10:04:45;7.43;;;1.10;;
15082;SDS011;7640;53.116;6.878;2024-01-15T10:07:16;6.67;;;1.40;;
15082;SDS011;7640;53.116;6.878;2024-01-15T10:09:45;5.90;;;1.30;;
15082;SDS011;7640;53.116;6.878;2024-01-15T10:12:14;8.13;;;1.83;;
15082;SDS011;7640;53.116;6.878;2024-01-15T10:14:43;3.77;;;1.40;;
15082;SDS011;7640;53.116;6.878;2024-01-15T10:17:12;6.07;;;1.20;;
15082;SDS011;7640;53.116;6.878;2024-01-15T10:19:44;6.47;;;1.60;;
15082;SDS011;7640;53.116;6.878;2024-01-15T10:22:17;7.87;;;1.40;;
15082;SDS011;7640;53.116;6.878;2024-01-15T10:24:46;7.43;;;1.63;;
15082;SDS011;7640;53.116;6.878;2024-01-15T10:27:16;10.20;;;1.90;;
15082;SDS011;7640;53.116;6.878;2024-01-15T10:29:44;6.30;;;1.40;;
15082;SDS011;7640;53.116;6.878;2024-01-15T10:32:13;3.13;;;1.40;;
15082;SDS011;7640;53.116;6.878;2024-01-15T10:34:41;6.77;;;1.40;;
15082;SDS011;7640;53.116;6.878;2024-01-15T10:37:10;6.20;;;1.80;;
15082;SDS011;7640;53.116;6.878;2024-01-15T10:39:40;7.70;;;1.60;;
15082;SDS011;7640;53.116;6.878;2024-01-15T10:42:09;7.83;;;1.60;;
15082;SDS011;7640;53.116;6.878;2024-01-15T10:44:38;6.83;;;1.77;;
15082;SDS011;7640;53.116;6.878;2024-01-15T10:47:06;11.20;;;2.03;;
15082;SDS011;7640;53.116;6.878;2024-01-15T10:49:35;13.20;;;2.10;;
15082;SDS011;7640;53.116;6.878;2024-01-15T10:52:04;7.53;;;1.87;;
15082;SDS011;7640;53.116;6.878;2024-01-15T10:54:33;8.80;;;2.17;;
15082;SDS011;7640;53.116;6.878;2024-01-15T10:57:06;10.33;;;2.00;;
15082;SDS011;7640;53.116;6.878;2024-01-15T10:59:35;8.03;;;1.80;;
15082;SDS011;7640;53.116;6.878;2024-01-15T11:02:04;6.70;;;1.63;;
15082;SDS011;7640;53.116;6.878;2024-01-15T11:04:33;5.77;;;1.37;;
15082;SDS011;7640;53.116;6.878;2024-01-15T11:07:02;5.60;;;1.60;;
15082;SDS011;7640;53.116;6.878;2024-01-15T11:09:32;5.00;;;1.77;;
15082;SDS011;7640;53.116;6.878;2024-01-15T11:12:09;9.17;;;1.60;;
15082;SDS011;7640;53.116;6.878;2024-01-15T11:14:39;6.20;;;1.90;;
15082;SDS011;7640;53.116;6.878;2024-01-15T11:17:10;6.20;;;1.80;;
15082;SDS011;7640;53.116;6.878;2024-01-15T11:19:42;3.93;;;1.10;;
15082;SDS011;7640;53.116;6.878;2024-01-15T11:25:17;9.43;;;2.67;;
15082;SDS011;7640;53.116;6.878;2024-01-15T11:27:49;2.70;;;1.33;;
15082;SDS011;7640;53.116;6.878;2024-01-15T11:30:21;6.60;;;1.80;;
15082;SDS011;7640;53.116;6.878;2024-01-15T11:32:53;4.97;;;1.60;;
15082;SDS011;7640;53.116;6.878;2024-01-15T11:35:22;4.40;;;1.40;;
15082;SDS011;7640;53.116;6.878;2024-01-15T11:37:57;5.80;;;1.63;;
15082;SDS011;7640;53.116;6.878;2024-01-15T11:40:36;7.50;;;1.47;;
15082;SDS011;7640;53.116;6.878;2024-01-15T11:43:07;3.37;;;1.30;;
15082;SDS011;7640;53.116;6.878;2024-01-15T11:45:36;4.17;;;1.20;;
15082;SDS011;7640;53.116;6.878;2024-01-15T11:50:44;6.37;;;1.60;;
15082;SDS011;7640;53.116;6.878;2024-01-15T11:53:17;1.97;;;1.20;;
15082;SDS011;7640;53.116;6.878;2024-01-15T11:55:58;4.83;;;1.37;;
15082;SDS011;7640;53.116;6.878;2024-01-15T11:58:29;3.77;;;1.60;;
15082;SDS011;7640;53.116;6.878;2024-01-15T12:00:58;3.57;;;0.80;;
15082;SDS011;7640;53.116;6.878;2024-01-15T12:03:27;6.07;;;0.80;;
15082;SDS011;7640;53.116;6.878;2024-01-15T12:05:56;1.03;;;0.80;;
15082;SDS011;7640;53.116;6.878;2024-01-15T12:08:26;3.03;;;0.90;;
15082;SDS011;7640;53.116;6.878;2024-01-15T12:10:55;3.70;;;0.90;;
15082;SDS011;7640;53.116;6.878;2024-01-15T12:13:24;2.87;;;0.90;;
15082;SDS011;7640;53.116;6.878;2024-01-15T12:15:54;4.00;;;0.90;;
15082;SDS011;7640;53.116;6.878;2024-01-15T12:18:23;2.70;;;0.70;;
15082;SDS011;7640;53.116;6.878;2024-01-15T12:20:53;3.37;;;0.97;;
15082;SDS011;7640;53.116;6.878;2024-01-15T12:23:23;3.70;;;0.80;;
15082;SDS011;7640;53.116;6.878;2024-01-15T12:25:53;1.93;;;0.70;;
15082;SDS011;7640;53.116;6.878;2024-01-15T12:28:22;4.30;;;1.07;;
15082;SDS011;7640;53.116;6.878;2024-01-15T12:30:56;3.33;;;0.87;;
15082;SDS011;7640;53.116;6.878;2024-01-15T12:33:27;3.00;;;0.70;;
15082;SDS011;7640;53.116;6.878;2024-01-15T12:35:55;2.87;;;1.00;;
15082;SDS011;7640;53.116;6.878;2024-01-15T12:38:24;3.50;;;1.20;;
15082;SDS011;7640;53.116;6.878;2024-01-15T12:40:52;4.73;;;0.90;;
15082;SDS011;7640;53.116;6.878;2024-01-15T12:43:22;2.23;;;0.70;;
15082;SDS011;7640;53.116;6.878;2024-01-15T12:45:51;3.83;;;1.00;;
15082;SDS011;7640;53.116;6.878;2024-01-15T12:48:21;2.60;;;0.90;;
15082;SDS011;7640;53.116;6.878;2024-01-15T12:50:52;1.53;;;1.00;;
15082;SDS011;7640;53.116;6.878;2024-01-15T12:53:20;3.50;;;0.87;;
15082;SDS011;7640;53.116;6.878;2024-01-15T12:55:49;1.93;;;0.70;;
15082;SDS011;7640;53.116;6.878;2024-01-15T12:58:18;1.10;;;0.60;;
15082;SDS011;7640;53.116;6.878;2024-01-15T13:00:46;3.63;;;0.87;;
15082;SDS011;7640;53.116;6.878;2024-01-15T13:03:16;3.13;;;1.20;;
15082;SDS011;7640;53.116;6.878;2024-01-15T13:05:46;5.23;;;1.20;;
15082;SDS011;7640;53.116;6.878;2024-01-15T13:08:15;5.13;;;1.40;;
15082;SDS011;7640;53.116;6.878;2024-01-15T13:10:44;4.67;;;1.30;;
15082;SDS011;7640;53.116;6.878;2024-01-15T13:13:13;4.93;;;1.20;;
15082;SDS011;7640;53.116;6.878;2024-01-15T13:15:41;5.57;;;1.30;;
15082;SDS011;7640;53.116;6.878;2024-01-15T13:18:10;4.40;;;1.20;;
15082;SDS011;7640;53.116;6.878;2024-01-15T13:20:39;6.27;;;1.50;;
15082;SDS011;7640;53.116;6.878;2024-01-15T13:23:09;4.77;;;1.40;;
15082;SDS011;7640;53.116;6.878;2024-01-15T13:25:38;6.13;;;1.30;;
15082;SDS011;7640;53.116;6.878;2024-01-15T13:28:06;7.50;;;1.80;;
15082;SDS011;7640;53.116;6.878;2024-01-15T13:30:35;8.07;;;1.60;;
15082;SDS011;7640;53.116;6.878;2024-01-15T13:33:05;7.97;;;1.87;;
15082;SDS011;7640;53.116;6.878;2024-01-15T13:35:34;6.13;;;1.60;;
15082;SDS011;7640;53.116;6.878;2024-01-15T13:38:03;5.80;;;2.00;;
15082;SDS011;7640;53.116;6.878;2024-01-15T13:40:33;8.37;;;1.50;;
15082;SDS011;7640;53.116;6.878;2024-01-15T13:43:02;9.40;;;1.83;;
15082;SDS011;7640;53.116;6.878;2024-01-15T13:45:34;6.90;;;2.03;;
15082;SDS011;7640;53.116;6.878;2024-01-15T13:48:04;10.40;;;2.07;;
15082;SDS011;7640;53.116;6.878;2024-01-15T13:50:34;9.03;;;1.47;;
15082;SDS011;7640;53.116;6.878;2024-01-15T13:53:03;7.37;;;1.70;;
15082;SDS011;7640;53.116;6.878;2024-01-15T13:55:33;6.47;;;1.90;;
15082;SDS011;7640;53.116;6.878;2024-01-15T13:58:02;5.43;;;1.50;;
15082;SDS011;7640;53.116;6.878;2024-01-15T14:00:32;6.13;;;1.20;;
15082;SDS011;7640;53.116;6.878;2024-01-15T14:03:01;5.30;;;1.40;;
15082;SDS011;7640;53.116;6.878;2024-01-15T14:05:30;4.97;;;1.00;;
15082;SDS011;7640;53.116;6.878;2024-01-15T14:07:59;6.57;;;1.20;;
15082;SDS011;7640;53.116;6.878;2024-01-15T14:10:28;6.77;;;1.30;;
15082;SDS011;7640;53.116;6.878;2024-01-15T14:12:57;3.93;;;1.10;;
15082;SDS011;7640;53.116;6.878;2024-01-15T14:15:27;5.57;;;1.30;;
15082;SDS011;7640;53.116;6.878;2024-01-15T14:17:55;3.33;;;1.83;;
15082;SDS011;7640;53.116;6.878;2024-01-15T14:20:25;6.53;;;1.20;;
15082;SDS011;7640;53.116;6.878;2024-01-15T14:22:54;5.27;;;1.30;;
15082;SDS011;7640;53.116;6.878;2024-01-15T14:25:22;4.67;;;1.20;;
15082;SDS011;7640;53.116;6.878;2024-01-15T14:27:51;5.87;;;1.43;;
15082;SDS011;7640;53.116;6.878;2024-01-15T14:30:21;6.40;;;1.30;;
15082;SDS011;7640;53.116;6.878;2024-01-15T14:32:50;8.13;;;1.83;;
15082;SDS011;7640;53.116;6.878;2024-01-15T14:35:19;4.87;;;1.50;;
15082;SDS011;7640;53.116;6.878;2024-01-15T14:37:47;7.33;;;1.53;;
15082;SDS011;7640;53.116;6.878;2024-01-15T14:40:16;13.60;;;1.83;;
15082;SDS011;7640;53.116;6.878;2024-01-15T14:42:44;5.33;;;1.60;;
15082;SDS011;7640;53.116;6.878;2024-01-15T14:45:13;7.03;;;1.80;;
15082;SDS011;7640;53.116;6.878;2024-01-15T14:47:43;6.43;;;2.40;;
15082;SDS011;7640;53.116;6.878;2024-01-15T14:50:12;7.67;;;1.90;;
15082;SDS011;7640;53.116;6.878;2024-01-15T14:52:40;11.77;;;2.27;;
15082;SDS011;7640;53.116;6.878;2024-01-15T14:55:12;11.57;;;1.90;;
15082;SDS011;7640;53.116;6.878;2024-01-15T14:57:41;7.90;;;1.90;;
15082;SDS011;7640;53.116;6.878;2024-01-15T15:00:09;10.10;;;2.13;;
15082;SDS011;7640;53.116;6.878;2024-01-15T15:02:41;7.77;;;2.83;;
15082;SDS011;7640;53.116;6.878;2024-01-15T15:05:19;11.77;;;3.70;;
15082;SDS011;7640;53.116;6.878;2024-01-15T15:07:48;8.03;;;2.20;;
15082;SDS011;7640;53.116;6.878;2024-01-15T15:10:17;7.50;;;1.90;;
15082;SDS011;7640;53.116;6.878;2024-01-15T15:12:45;8.60;;;2.00;;
15082;SDS011;7640;53.116;6.878;2024-01-15T15:15:14;13.83;;;3.63;;